Time;durP1;ratioP1;P1;durP2;ratioP2;P2;SDS_P1;SDS_P2;PMS_P1;PMS_P2;Temp;Humidity;BMP_temperature;BMP_pressure;BME280_temperature;BME280_humidity;BME280_pressure;Samples;Min_cycle;Max_cycle;Signal;HPM_P1;HPM_P2
2021/12/29 00:01:48;;;;;;;;;;;;;;;10.93;75.68;99583.06;5142926;27;46963;-79
2021/12/29 00:04:14;;;;;;;;;;;;;;;10.97;76.04;99594.09;5146299;27;26983;-79
2021/12/29 00:06:39;;;;;;;;;;;;;;;10.97;75.93;99599.28;5143891;27;26799;-78
2021/12/29 00:09:04;;;;;;;;;;;;;;;10.97;76.37;99604.44;5143873;27;26969;-79
2021/12/29 00:11:29;;;;;;;;;;;;;;;10.97;76.30;99607.88;5144763;27;26798;-79
2021/12/29 00:13:54;;;;;;;;;;;;;;;10.98;75.53;99606.97;5143648;27;26898;-78
2021/12/29 00:16:20;;;;;;;;;;;;;;;11.00;75.73;99614.63;5141336;27;26764;-79
2021/12/29 00:18:45;;;;;;;;;;;;;;;11.01;75.86;99611.16;5140414;27;52251;-78
2021/12/29 00:21:10;;;;;;;;;;;;;;;11.00;76.06;99619.78;5142177;27;27186;-79
2021/12/29 00:23:36;;;;;;;;;;;;;;;10.99;75.76;99623.28;5142742;27;26859;-78
2021/12/29 00:26:01;;;;;;;;;;;;;;;11.00;76.01;99624.97;5143028;27;26741;-78
2021/12/29 00:28:26;;;;;;;;;;;;;;;11.01;75.54;99631.81;5142982;27;26808;-78
2021/12/29 00:30:52;;;;;;;;;;;;;;;11.00;75.96;99630.13;5146126;27;26740;-78
2021/12/29 00:33:17;;;;;;;;;;;;;;;11.01;75.47;99632.66;5144587;27;39554;-78
2021/12/29 00:35:43;;;;;;;;;;;;;;;11.03;75.87;99627.41;5140951;27;26888;-80
2021/12/29 00:38:11;;;;;;;;;;;;;;;11.02;75.94;99638.66;5141255;27;26819;-80
2021/12/29 00:40:37;;;;;;;;;;;;;;;11.01;75.27;99648.16;5142518;27;27218;-80
2021/12/29 00:43:03;;;;;;;;;;;;;;;11.02;75.64;99654.97;5142427;27;26794;-80
2021/12/29 00:45:31;;;;;;;;;;;;;;;11.01;76.14;99655.91;5141134;27;28791;-78
2021/12/29 00:47:57;;;;;;;;;;;;;;;11.01;75.48;99658.50;5141676;27;26767;-78
2021/12/29 00:50:22;;;;;;;;;;;;;;;11.02;75.90;99669.66;5141696;27;26903;-78
2021/12/29 00:52:47;;;;;;;;;;;;;;;11.04;75.65;99670.41;5142988;27;51138;-79
2021/12/29 00:55:13;;;;;;;;;;;;;;;11.05;75.92;99683.28;5142547;27;26720;-80
2021/12/29 00:57:38;;;;;;;;;;;;;;;11.06;75.57;99686.69;5140580;27;27122;-80
2021/12/29 01:00:08;;;;;;;;;;;;;;;11.07;75.51;99690.94;5142908;27;26629;-79
2021/12/29 01:02:33;;;;;;;;;;;;;;;11.09;75.04;99709.81;5142823;27;26790;-80
2021/12/29 01:04:59;;;;;;;;;;;;;;;11.08;76.01;99718.47;5141687;27;26855;-82
2021/12/29 01:07:24;;;;;;;;;;;;;;;11.11;75.88;99720.91;5140631;27;26779;-82
2021/12/29 01:09:49;;;;;;;;;;;;;;;11.10;75.96;99729.56;5139757;27;56096;-78
2021/12/29 01:12:15;;;;;;;;;;;;;;;11.09;75.10;99746.00;5140662;27;27242;-81
2021/12/29 01:14:41;;;;;;;;;;;;;;;11.07;75.39;99740.03;5140384;27;27011;-80
2021/12/29 01:17:06;;;;;;;;;;;;;;;11.10;75.47;99760.59;5140603;27;26896;-80
2021/12/29 01:19:31;;;;;;;;;;;;;;;11.11;75.80;99772.59;5140279;27;27056;-81
2021/12/29 01:21:57;;;;;;;;;;;;;;;11.12;75.45;99779.47;5151553;27;26896;-81
2021/12/29 01:24:26;;;;;;;;;;;;;;;11.11;75.42;99782.94;5146731;27;27030;-81
2021/12/29 01:26:52;;;;;;;;;;;;;;;11.12;76.25;99784.63;5142569;27;27081;-81
2021/12/29 01:29:18;;;;;;;;;;;;;;;11.13;75.88;99794.06;5142622;27;27893;-80
2021/12/29 01:31:43;;;;;;;;;;;;;;;11.14;75.19;99799.16;5146194;27;27047;-80
2021/12/29 01:34:09;;;;;;;;;;;;;;;11.14;76.11;99803.47;5145665;27;27285;-78
2021/12/29 01:36:35;;;;;;;;;;;;;;;11.14;76.08;99813.81;5144447;27;26943;-79
2021/12/29 01:39:02;;;;;;;;;;;;;;;11.14;75.70;99824.16;5144044;27;28302;-78
2021/12/29 01:41:27;;;;;;;;;;;;;;;11.13;76.21;99832.84;5143760;27;26804;-78
2021/12/29 01:43:52;;;;;;;;;;;;;;;11.12;75.44;99841.47;5144168;27;26944;-79
2021/12/29 01:46:18;;;;;;;;;;;;;;;11.14;76.04;99860.34;5144427;27;54593;-79
2021/12/29 01:48:43;;;;;;;;;;;;;;;11.15;76.03;99856.84;5145068;27;28110;-80
2021/12/29 01:51:08;;;;;;;;;;;;;;;11.16;75.83;99853.38;5144420;27;27009;-79
2021/12/29 01:53:35;;;;;;;;;;;;;;;11.17;76.54;99855.06;5143678;27;26904;-80
2021/12/29 01:56:00;;;;;;;;;;;;;;;11.19;76.00;99858.41;5146238;27;26681;-79
2021/12/29 01:58:27;;;;;;;;;;;;;;;11.20;76.26;99862.69;5145603;27;26971;-79
2021/12/29 02:00:52;;;;;;;;;;;;;;;11.22;75.66;99857.41;5145447;27;26963;-80
2021/12/29 02:03:18;;;;;;;;;;;;;;;11.22;75.90;99863.44;5145356;27;26843;-79
2021/12/29 02:05:44;;;;;;;;;;;;;;;11.23;76.40;99869.44;5143860;27;27010;-80
2021/12/29 02:08:10;;;;;;;;;;;;;;;11.20;76.07;99875.59;5149105;27;27159;-79
2021/12/29 02:10:42;;;;;;;;;;;;;;;11.20;75.86;99880.78;5143931;27;26584;-79
2021/12/29 02:13:09;;;;;;;;;;;;;;;11.19;76.04;99884.25;5143126;27;26888;-79
2021/12/29 02:15:35;;;;;;;;;;;;;;;11.20;75.87;99880.78;5146403;27;26794;-80
2021/12/29 02:18:00;;;;;;;;;;;;;;;11.20;76.30;99891.09;5154132;27;26759;-80
2021/12/29 02:20:26;;;;;;;;;;;;;;;11.18;76.35;99877.38;5142781;27;49709;-80
2021/12/29 02:23:12;;;;;;;;;;;;;;;11.17;76.15;99886.06;5143241;27;27213;-80
2021/12/29 02:25:48;;;;;;;;;;;;;;;11.17;75.56;99891.25;5142821;27;26809;-82
2021/12/29 02:28:15;;;;;;;;;;;;;;;11.13;76.30;99895.66;5142440;27;27169;-81
2021/12/29 02:30:40;;;;;;;;;;;;;;;11.15;76.21;99887.88;5144292;27;26875;-80
2021/12/29 02:33:06;;;;;;;;;;;;;;;11.15;76.29;99899.06;5144322;27;27583;-80
2021/12/29 02:35:31;;;;;;;;;;;;;;;11.13;76.14;99905.19;5143747;27;26907;-80
2021/12/29 02:37:59;;;;;;;;;;;;;;;11.14;76.39;99912.03;5143661;27;27006;-80
2021/12/29 02:40:24;;;;;;;;;;;;;;;11.15;76.78;99913.72;5143246;27;26835;-81
2021/12/29 02:42:49;;;;;;;;;;;;;;;11.15;75.97;99914.56;5140817;27;56157;-81
2021/12/29 02:45:17;;;;;;;;;;;;;;;11.13;76.00;99918.13;5142862;27;26779;-80
2021/12/29 02:47:43;;;;;;;;;;;;;;;11.12;75.93;99926.75;5142785;27;26812;-80
2021/12/29 02:50:08;;;;;;;;;;;;;;;11.11;76.73;99925.06;5143774;27;33148;-80
2021/12/29 02:52:33;;;;;;;;;;;;;;;11.09;75.84;99930.31;5144444;27;27015;-80
2021/12/29 02:54:59;;;;;;;;;;;;;;;11.10;76.00;99941.47;5149303;27;26841;-79
2021/12/29 02:57:24;;;;;;;;;;;;;;;11.08;75.76;99936.38;5146236;27;26926;-80
2021/12/29 02:59:49;;;;;;;;;;;;;;;11.06;76.16;99934.75;5145415;27;26689;-80
2021/12/29 03:02:16;;;;;;;;;;;;;;;11.06;76.30;99951.09;5144582;27;26973;-80
2021/12/29 03:04:41;;;;;;;;;;;;;;;11.07;76.04;99951.94;5144748;27;26672;-80
2021/12/29 03:07:06;;;;;;;;;;;;;;;11.07;76.05;99962.28;5144145;27;26898;-78
2021/12/29 03:09:31;;;;;;;;;;;;;;;11.11;76.19;99953.50;5144139;27;26784;-81
2021/12/29 03:11:56;;;;;;;;;;;;;;;11.09;76.80;99950.16;5150709;27;29200;-81
2021/12/29 03:14:22;;;;;;;;;;;;;;;11.10;76.88;99956.97;5144688;27;54334;-78
2021/12/29 03:16:47;;;;;;;;;;;;;;;11.12;76.46;99962.94;5142266;27;27006;-79
2021/12/29 03:19:13;;;;;;;;;;;;;;;11.10;76.44;99964.72;5144705;27;26886;-81
2021/12/29 03:21:39;;;;;;;;;;;;;;;11.09;75.51;99971.69;5150078;27;26983;-81
2021/12/29 03:24:05;;;;;;;;;;;;;;;11.09;76.10;99965.66;5142232;27;26599;-80
2021/12/29 03:26:30;;;;;;;;;;;;;;;11.08;76.11;99979.47;5142559;27;28625;-79
2021/12/29 03:28:57;;;;;;;;;;;;;;;11.09;75.82;99976.00;5143367;27;31555;-80
2021/12/29 03:31:23;;;;;;;;;;;;;;;11.07;75.41;99975.19;5143860;27;27058;-80
2021/12/29 03:33:49;;;;;;;;;;;;;;;11.08;76.52;99989.81;5144154;27;27006;-80
2021/12/29 03:36:15;;;;;;;;;;;;;;;11.08;76.24;100000.16;5142206;27;26850;-80
2021/12/29 03:38:41;;;;;;;;;;;;;;;11.05;75.38;99995.13;5143201;27;27021;-79
2021/12/29 03:41:08;;;;;;;;;;;;;;;11.04;76.00;100007.19;5142783;27;27727;-79
2021/12/29 03:43:33;;;;;;;;;;;;;;;11.05;75.86;100000.28;5142948;27;26737;-80
2021/12/29 03:45:59;;;;;;;;;;;;;;;11.04;75.66;100004.59;5144174;27;26965;-80
2021/12/29 03:48:25;;;;;;;;;;;;;;;11.04;76.12;100011.50;5143808;27;26796;-80
2021/12/29 03:50:50;;;;;;;;;;;;;;;11.03;76.17;100009.81;5140215;27;26919;-80
2021/12/29 03:53:16;;;;;;;;;;;;;;;11.03;75.91;100017.56;5148016;27;26763;-80
2021/12/29 03:55:42;;;;;;;;;;;;;;;11.03;75.86;100017.56;5141041;27;27485;-80
2021/12/29 03:58:07;;;;;;;;;;;;;;;11.02;75.83;100016.72;5140021;27;26791;-81
2021/12/29 04:00:33;;;;;;;;;;;;;;;11.01;75.88;100025.41;5139826;27;26729;-80
2021/12/29 04:02:58;;;;;;;;;;;;;;;10.99;75.84;100026.34;5139819;27;26829;-80
2021/12/29 04:05:23;;;;;;;;;;;;;;;10.98;75.77;100040.19;5146254;27;26985;-81
2021/12/29 04:07:49;;;;;;;;;;;;;;;10.98;75.73;100040.19;5145366;27;26909;-80
2021/12/29 04:10:14;;;;;;;;;;;;;;;10.98;75.92;100040.19;5141638;27;26927;-78
2021/12/29 04:12:40;;;;;;;;;;;;;;;10.97;75.64;100044.50;5142192;27;26845;-79
2021/12/29 04:15:07;;;;;;;;;;;;;;;10.94;75.69;100048.94;5143170;27;27042;-80
2021/12/29 04:17:38;;;;;;;;;;;;;;;10.95;75.40;100060.94;5144628;27;26865;-80
2021/12/29 04:22:51;;;;;;;;;;;;;;;10.94;75.40;100069.63;5141638;27;26880;-80
2021/12/29 04:25:19;;;;;;;;;;;;;;;10.94;76.02;100069.63;5143951;27;27186;-80
2021/12/29 04:27:45;;;;;;;;;;;;;;;10.94;75.61;100079.97;5144315;27;26833;-80
2021/12/29 04:30:10;;;;;;;;;;;;;;;10.93;76.27;100083.44;5143282;27;27530;-80
2021/12/29 04:32:35;;;;;;;;;;;;;;;10.93;75.76;100088.59;5142818;27;26825;-79
2021/12/29 04:35:01;;;;;;;;;;;;;;;10.90;75.88;100088.72;5142836;27;27022;-79
2021/12/29 04:37:26;;;;;;;;;;;;;;;10.91;75.63;100100.75;5147026;27;51440;-79
2021/12/29 04:39:51;;;;;;;;;;;;;;;10.92;76.07;100102.41;5145905;27;56106;-79
2021/12/29 04:42:16;;;;;;;;;;;;;;;10.92;75.78;100099.81;5142522;27;53917;-80
2021/12/29 04:44:41;;;;;;;;;;;;;;;10.90;75.97;100101.63;5143440;27;27017;-79
2021/12/29 04:47:08;;;;;;;;;;;;;;;10.91;75.87;100108.50;5142683;27;26900;-80
2021/12/29 04:49:40;;;;;;;;;;;;;;;10.93;75.59;100111.84;5141613;27;26833;-79
2021/12/29 04:52:05;;;;;;;;;;;;;;;10.93;75.63;100119.59;5141353;27;26798;-79
2021/12/29 04:54:31;;;;;;;;;;;;;;;10.92;76.15;100117.91;5140645;27;26729;-80
2021/12/29 04:56:56;;;;;;;;;;;;;;;10.93;75.37;100119.59;5139100;27;27059;-79
2021/12/29 04:59:22;;;;;;;;;;;;;;;10.94;75.51;100121.28;5142712;27;27512;-80
2021/12/29 05:01:47;;;;;;;;;;;;;;;10.94;75.70;100129.06;5150063;27;26954;-80
2021/12/29 05:04:20;;;;;;;;;;;;;;;10.95;75.13;100133.28;5139911;27;27109;-80
2021/12/29 05:09:29;;;;;;;;;;;;;;;10.92;75.63;100144.59;5143093;27;27409;-81
2021/12/29 05:11:54;;;;;;;;;;;;;;;10.91;76.19;100157.59;5142167;27;54252;-81
2021/12/29 05:14:19;;;;;;;;;;;;;;;10.88;75.61;100155.09;5141566;27;56733;-80
2021/12/29 05:16:44;;;;;;;;;;;;;;;10.87;76.07;100161.19;5141440;27;55398;-80
2021/12/29 05:19:09;;;;;;;;;;;;;;;10.89;75.41;100169.69;5141180;27;56231;-80
2021/12/29 05:21:34;;;;;;;;;;;;;;;10.90;75.88;100168.81;5141859;27;53638;-81
2021/12/29 05:24:00;;;;;;;;;;;;;;;10.89;75.47;100170.56;5142492;27;27036;-80
2021/12/29 05:26:25;;;;;;;;;;;;;;;10.89;75.83;100169.69;5143601;27;47280;-80
2021/12/29 05:28:50;;;;;;;;;;;;;;;10.88;75.98;100170.59;5151477;27;55941;-80
2021/12/29 05:31:15;;;;;;;;;;;;;;;10.88;75.38;100173.19;5142868;27;26843;-80
2021/12/29 05:33:41;;;;;;;;;;;;;;;10.88;75.67;100178.34;5142967;27;26740;-79
2021/12/29 05:36:06;;;;;;;;;;;;;;;10.89;75.04;100182.63;5145743;27;26863;-79
2021/12/29 05:38:31;;;;;;;;;;;;;;;10.89;75.83;100195.53;5146020;27;26884;-79
2021/12/29 05:40:56;;;;;;;;;;;;;;;10.89;76.22;100196.38;5146317;27;26914;-79
2021/12/29 05:43:22;;;;;;;;;;;;;;;10.86;75.29;100190.47;5144891;27;26524;-79
2021/12/29 05:45:49;;;;;;;;;;;;;;;10.86;75.79;100196.50;5141644;27;26760;-80
2021/12/29 05:48:14;;;;;;;;;;;;;;;10.88;75.85;100204.19;5141221;27;26927;-80
2021/12/29 05:50:39;;;;;;;;;;;;;;;10.87;75.71;100205.09;5141827;27;27049;-80
2021/12/29 05:53:04;;;;;;;;;;;;;;;10.85;76.14;100217.22;5141695;27;27027;-80
2021/12/29 05:55:30;;;;;;;;;;;;;;;10.88;76.39;100206.75;5140674;27;50719;-80
2021/12/29 05:57:55;;;;;;;;;;;;;;;10.88;75.81;100217.09;5141286;27;26882;-80
2021/12/29 06:00:22;;;;;;;;;;;;;;;10.88;76.29;100224.84;5142559;27;26883;-79
2021/12/29 06:02:47;;;;;;;;;;;;;;;10.85;76.40;100215.47;5143711;27;26863;-79
2021/12/29 06:05:12;;;;;;;;;;;;;;;10.86;76.38;100226.66;5141995;27;26904;-80
2021/12/29 06:07:38;;;;;;;;;;;;;;;10.83;76.35;100226.78;5141325;27;28183;-80
2021/12/29 06:10:04;;;;;;;;;;;;;;;10.84;75.72;100228.44;5141643;27;26776;-80
2021/12/29 06:12:29;;;;;;;;;;;;;;;10.84;75.53;100233.59;5141542;27;27248;-80
2021/12/29 06:14:55;;;;;;;;;;;;;;;10.86;76.47;100231.81;5146072;27;49207;-79
2021/12/29 06:17:20;;;;;;;;;;;;;;;10.86;75.83;100237.00;5151007;27;26861;-79
2021/12/29 06:19:45;;;;;;;;;;;;;;;10.87;75.58;100238.69;5146184;27;48108;-80
2021/12/29 06:22:11;;;;;;;;;;;;;;;10.86;75.78;100243.00;5139678;27;55312;-80
2021/12/29 06:24:39;;;;;;;;;;;;;;;10.84;75.60;100249.94;5141150;27;26832;-79
2021/12/29 06:27:04;;;;;;;;;;;;;;;10.82;76.22;100245.75;5140906;27;26807;-79
2021/12/29 06:29:29;;;;;;;;;;;;;;;10.83;76.40;100255.19;5141709;27;27048;-79
2021/12/29 06:31:55;;;;;;;;;;;;;;;10.83;75.54;100258.63;5140913;27;48106;-79
2021/12/29 06:34:20;;;;;;;;;;;;;;;10.85;75.57;100255.97;5141081;27;35313;-79
2021/12/29 06:36:45;;;;;;;;;;;;;;;10.84;75.46;100259.44;5140481;27;26845;-78
2021/12/29 06:39:10;;;;;;;;;;;;;;;10.83;75.37;100262.94;5140594;27;35997;-78
2021/12/29 06:41:35;;;;;;;;;;;;;;;10.82;75.73;100262.09;5142527;27;27049;-78
2021/12/29 06:44:01;;;;;;;;;;;;;;;10.82;76.38;100261.25;5142945;27;43173;-79
2021/12/29 06:46:26;;;;;;;;;;;;;;;10.82;76.53;100261.25;5144861;27;28038;-78
2021/12/29 06:48:51;;;;;;;;;;;;;;;10.81;75.83;100259.53;5143095;27;53120;-79
2021/12/29 06:51:16;;;;;;;;;;;;;;;10.82;75.78;100256.06;5144422;27;56683;-78
2021/12/29 06:53:41;;;;;;;;;;;;;;;10.84;75.84;100265.44;5144231;27;54362;-79
2021/12/29 06:56:07;;;;;;;;;;;;;;;10.86;75.71;100268.00;5143929;27;36737;-78
2021/12/29 06:58:32;;;;;;;;;;;;;;;10.85;76.34;100271.47;5142115;27;54192;-78
2021/12/29 07:00:58;;;;;;;;;;;;;;;10.85;76.04;100287.81;5144912;27;26860;-78
2021/12/29 07:03:23;;;;;;;;;;;;;;;10.85;76.50;100286.97;5144921;27;26736;-78
2021/12/29 07:05:48;;;;;;;;;;;;;;;10.86;76.22;100284.34;5144362;27;26811;-80
2021/12/29 07:08:14;;;;;;;;;;;;;;;10.88;75.70;100292.00;5141750;27;26865;-79
2021/12/29 07:10:40;;;;;;;;;;;;;;;10.89;75.73;100293.72;5143814;27;26784;-79
2021/12/29 07:13:06;;;;;;;;;;;;;;;10.91;76.09;100297.09;5144199;27;26786;-78
2021/12/29 07:15:31;;;;;;;;;;;;;;;10.90;75.88;100300.56;5141186;27;26822;-79
2021/12/29 07:17:56;;;;;;;;;;;;;;;10.92;75.89;100311.69;5139718;27;26761;-80
2021/12/29 07:20:21;;;;;;;;;;;;;;;10.95;76.32;100309.00;5139694;27;27269;-80
2021/12/29 07:22:47;;;;;;;;;;;;;;;10.98;75.46;100320.09;5139912;27;27051;-82
2021/12/29 07:25:12;;;;;;;;;;;;;;;11.02;75.34;100315.66;5141622;27;55198;-78
2021/12/29 07:27:37;;;;;;;;;;;;;;;11.04;75.73;100319.03;5141903;27;36012;-78
2021/12/29 07:30:03;;;;;;;;;;;;;;;11.06;75.87;100322.38;5141400;27;27753;-79
2021/12/29 07:32:28;;;;;;;;;;;;;;;11.07;76.01;100334.41;5141301;27;26717;-78
2021/12/29 07:34:53;;;;;;;;;;;;;;;11.11;76.13;100336.00;5140370;27;26853;-80
2021/12/29 07:37:18;;;;;;;;;;;;;;;11.14;76.02;100339.31;5139640;27;26844;-79
2021/12/29 07:39:43;;;;;;;;;;;;;;;11.18;75.59;100342.66;5140100;27;27019;-80
2021/12/29 07:42:09;;;;;;;;;;;;;;;11.18;75.52;100347.81;5140366;27;31609;-78
2021/12/29 07:44:34;;;;;;;;;;;;;;;11.18;75.82;100347.81;5143279;27;26881;-79
2021/12/29 07:46:59;;;;;;;;;;;;;;;11.16;75.95;100354.78;5144479;27;27005;-79
2021/12/29 07:49:25;;;;;;;;;;;;;;;11.17;75.86;100366.81;5142888;27;27240;-78
2021/12/29 07:51:51;;;;;;;;;;;;;;;11.18;76.36;100363.31;5141049;27;26822;-78
2021/12/29 07:54:16;;;;;;;;;;;;;;;11.18;75.68;100368.50;5140861;27;27533;-78
2021/12/29 07:56:42;;;;;;;;;;;;;;;11.22;75.30;100364.91;5141569;27;27044;-78
2021/12/29 07:59:07;;;;;;;;;;;;;;;11.24;75.75;100365.72;5141346;27;27028;-79
2021/12/29 08:01:32;;;;;;;;;;;;;;;11.26;76.09;100366.50;5142475;27;42922;-79
2021/12/29 08:03:58;;;;;;;;;;;;;;;11.27;76.41;100363.03;5142524;27;27571;-78
2021/12/29 08:06:23;;;;;;;;;;;;;;;11.27;76.26;100368.19;5142102;27;26881;-79
2021/12/29 08:08:48;;;;;;;;;;;;;;;11.29;75.77;100366.38;5141411;27;26765;-79
2021/12/29 08:11:14;;;;;;;;;;;;;;;11.30;75.79;100372.41;5140577;27;55188;-78
2021/12/29 08:13:39;;;;;;;;;;;;;;;11.31;75.73;100369.78;5141566;27;26837;-78
2021/12/29 08:16:05;;;;;;;;;;;;;;;11.32;75.29;100375.78;5141077;27;26788;-79
2021/12/29 08:18:30;;;;;;;;;;;;;;;11.32;75.71;100376.59;5145547;27;27018;-78
2021/12/29 08:20:55;;;;;;;;;;;;;;;11.32;76.06;100383.53;5127004;27;54601;-78
2021/12/29 08:23:20;;;;;;;;;;;;;;;11.32;76.05;100386.94;5145481;27;28430;-79
2021/12/29 08:25:46;;;;;;;;;;;;;;;11.34;75.66;100390.34;5142277;27;26593;-79
2021/12/29 08:28:12;;;;;;;;;;;;;;;11.35;75.89;100392.03;5141857;27;26826;-78
2021/12/29 08:30:37;;;;;;;;;;;;;;;11.39;75.69;100396.22;5144477;27;26828;-79
2021/12/29 08:33:02;;;;;;;;;;;;;;;11.43;75.86;100395.22;5143915;27;27168;-78
2021/12/29 08:35:28;;;;;;;;;;;;;;;11.47;75.88;100396.75;5142378;27;26813;-78
2021/12/29 08:37:53;;;;;;;;;;;;;;;11.50;75.71;100401.84;5141588;27;27306;-78
2021/12/29 08:40:19;;;;;;;;;;;;;;;11.50;76.04;100391.50;5138947;27;26922;-79
2021/12/29 08:42:46;;;;;;;;;;;;;;;11.52;75.62;100381.09;5141707;27;26975;-79
2021/12/29 08:45:12;;;;;;;;;;;;;;;11.52;75.54;100379.34;5143393;27;26846;-78
2021/12/29 08:47:38;;;;;;;;;;;;;;;11.54;76.16;100379.31;5142823;27;27103;-79
2021/12/29 08:50:05;;;;;;;;;;;;;;;11.54;74.98;100387.91;5142604;27;35157;-78
2021/12/29 08:52:30;;;;;;;;;;;;;;;11.53;75.62;100380.19;5141986;27;26791;-78
2021/12/29 08:54:55;;;;;;;;;;;;;;;11.55;75.29;100379.22;5138686;27;55062;-79
2021/12/29 08:57:20;;;;;;;;;;;;;;;11.60;76.11;100386.84;5138326;27;26931;-79
2021/12/29 08:59:45;;;;;;;;;;;;;;;11.62;75.84;100391.03;5136117;27;55145;-79
2021/12/29 09:02:10;;;;;;;;;;;;;;;11.63;75.71;100384.97;5137143;27;26996;-79
2021/12/29 09:04:36;;;;;;;;;;;;;;;11.66;75.55;100380.63;5137195;27;38403;-79
2021/12/29 09:07:01;;;;;;;;;;;;;;;11.66;75.43;100376.25;5136947;27;56456;-79
2021/12/29 09:09:26;;;;;;;;;;;;;;;11.71;75.14;100383.84;5138712;27;26979;-79
2021/12/29 09:11:53;;;;;;;;;;;;;;;11.72;75.88;100390.75;5141979;27;27781;-79
2021/12/29 09:14:18;;;;;;;;;;;;;;;11.76;75.84;100392.34;5141899;27;26812;-78
2021/12/29 09:16:43;;;;;;;;;;;;;;;11.80;75.11;100393.91;5144582;27;27019;-78
2021/12/29 09:19:12;;;;;;;;;;;;;;;11.82;75.47;100412.81;5143247;27;26968;-78
2021/12/29 09:21:38;;;;;;;;;;;;;;;11.84;76.10;100416.19;5140400;27;26925;-78
2021/12/29 09:24:04;;;;;;;;;;;;;;;11.84;75.82;100416.19;5139894;27;26848;-79
2021/12/29 09:26:29;;;;;;;;;;;;;;;11.83;75.34;100419.69;5138003;27;27674;-79
2021/12/29 09:28:54;;;;;;;;;;;;;;;11.85;76.07;100423.03;5136418;27;26981;-79
2021/12/29 09:31:20;;;;;;;;;;;;;;;11.82;75.97;100429.19;5136145;27;31869;-79
2021/12/29 09:33:45;;;;;;;;;;;;;;;11.82;75.00;100428.34;5137136;27;26807;-79
2021/12/29 09:36:10;;;;;;;;;;;;;;;11.80;75.61;100419.78;5138454;27;26921;-80
2021/12/29 09:38:36;;;;;;;;;;;;;;;11.77;75.19;100427.69;5137760;27;26950;-80
2021/12/29 09:41:05;;;;;;;;;;;;;;;11.73;75.43;100428.69;5138247;27;28734;-82
2021/12/29 09:43:30;;;;;;;;;;;;;;;11.75;74.98;100426.88;5137472;27;26867;-80
2021/12/29 09:45:56;;;;;;;;;;;;;;;11.75;75.17;100419.94;5138443;27;27664;-80
2021/12/29 09:48:21;;;;;;;;;;;;;;;11.76;75.05;100423.38;5138789;27;26905;-80
2021/12/29 09:50:47;;;;;;;;;;;;;;;11.78;76.14;100417.25;5139121;27;36043;-80
2021/12/29 09:53:13;;;;;;;;;;;;;;;11.80;75.87;100409.44;5142655;27;26969;-80
2021/12/29 09:55:38;;;;;;;;;;;;;;;11.81;75.58;100411.13;5145512;27;26784;-79
2021/12/29 09:58:04;;;;;;;;;;;;;;;11.85;75.00;100423.03;5146235;27;26977;-79
2021/12/29 10:00:29;;;;;;;;;;;;;;;11.84;75.46;100421.38;5147424;27;26968;-79
2021/12/29 10:02:55;;;;;;;;;;;;;;;11.83;75.67;100424.84;5149539;27;47990;-79
2021/12/29 10:05:22;;;;;;;;;;;;;;;11.83;75.25;100430.03;5149222;27;26779;-80
2021/12/29 10:08:05;;;;;;;;;;;;;;;11.84;75.85;100423.97;5146939;27;26752;-79
2021/12/29 10:10:30;;;;;;;;;;;;;;;11.88;75.26;100430.72;5145206;27;27004;-79
2021/12/29 10:12:57;;;;;;;;;;;;;;;11.89;75.10;100424.63;5126227;27;26830;-79
2021/12/29 10:15:33;;;;;;;;;;;;;;;11.91;74.85;100422.84;5143838;27;26922;-79
2021/12/29 10:18:03;;;;;;;;;;;;;;;11.88;75.92;100426.38;5144094;27;26983;-79
2021/12/29 10:20:28;;;;;;;;;;;;;;;11.86;75.81;100429.91;5140363;27;27129;-80
2021/12/29 10:22:54;;;;;;;;;;;;;;;11.86;74.59;100435.09;5140598;27;26968;-80
2021/12/29 10:25:24;;;;;;;;;;;;;;;11.87;75.48;100434.19;5139867;27;27965;-80
2021/12/29 10:27:49;;;;;;;;;;;;;;;11.87;74.66;100424.69;5139856;27;27138;-80
2021/12/29 10:30:18;;;;;;;;;;;;;;;11.86;75.40;100440.25;5139170;27;34848;-80
2021/12/29 10:32:44;;;;;;;;;;;;;;;11.86;75.03;100440.25;5139829;27;27015;-80
2021/12/29 10:35:18;;;;;;;;;;;;;;;11.86;75.16;100440.25;5141926;27;27637;-79
2021/12/29 10:37:43;;;;;;;;;;;;;;;11.87;75.39;100434.19;5142666;27;26811;-79
2021/12/29 10:40:14;;;;;;;;;;;;;;;11.87;74.97;100437.63;5142573;27;49393;-80
2021/12/29 10:42:39;;;;;;;;;;;;;;;11.92;74.82;100434.88;5143532;27;26979;-79
2021/12/29 10:45:04;;;;;;;;;;;;;;;11.93;75.21;100432.22;5140540;27;51745;-80
2021/12/29 10:47:33;;;;;;;;;;;;;;;11.96;74.73;100426.13;5141032;27;26952;-80
2021/12/29 10:49:58;;;;;;;;;;;;;;;12.00;75.43;100427.66;5146419;27;26773;-80
2021/12/29 10:52:35;;;;;;;;;;;;;;;12.03;74.65;100427.56;5141961;27;54604;-80
2021/12/29 10:55:02;;;;;;;;;;;;;;;12.06;75.33;100435.22;5141465;27;26972;-80
2021/12/29 10:57:27;;;;;;;;;;;;;;;12.06;74.95;100432.63;5141933;27;26810;-80
2021/12/29 10:59:57;;;;;;;;;;;;;;;12.09;75.09;100432.50;5141372;27;26828;-80
2021/12/29 11:02:25;;;;;;;;;;;;;;;12.12;75.00;100442.75;5139780;27;27093;-79
2021/12/29 11:04:55;;;;;;;;;;;;;;;12.14;74.64;100440.09;5143743;27;26888;-79
2021/12/29 11:07:25;;;;;;;;;;;;;;;12.13;75.06;100434.09;5144373;27;26792;-79
2021/12/29 11:09:50;;;;;;;;;;;;;;;12.13;74.76;100431.50;5140986;27;26790;-80
2021/12/29 11:12:16;;;;;;;;;;;;;;;12.12;75.05;100422.03;5139309;27;47322;-80
2021/12/29 11:14:42;;;;;;;;;;;;;;;12.10;75.08;100418.66;5140122;27;27590;-80
2021/12/29 11:17:10;;;;;;;;;;;;;;;12.11;74.50;100436.72;5142089;27;26929;-80
2021/12/29 11:19:36;;;;;;;;;;;;;;;12.13;75.02;100428.91;5146001;27;27294;-79
2021/12/29 11:22:15;;;;;;;;;;;;;;;12.16;74.92;100433.97;5144657;27;26854;-79
2021/12/29 11:24:42;;;;;;;;;;;;;;;12.18;75.06;100434.78;5142120;27;28075;-81
2021/12/29 11:27:08;;;;;;;;;;;;;;;12.18;74.87;100442.53;5141410;27;26748;-81
2021/12/29 11:29:33;;;;;;;;;;;;;;;12.17;74.83;100446.00;5140939;27;28152;-80
2021/12/29 11:32:00;;;;;;;;;;;;;;;12.14;75.48;100437.53;5139477;27;54196;-80
2021/12/29 11:34:27;;;;;;;;;;;;;;;12.12;74.79;100445.34;5139765;27;27646;-80
2021/12/29 11:37:00;;;;;;;;;;;;;;;12.15;74.68;100452.97;5141417;27;26852;-80
2021/12/29 11:39:25;;;;;;;;;;;;;;;12.15;74.19;100452.97;5141318;27;27611;-79
2021/12/29 11:41:50;;;;;;;;;;;;;;;12.18;74.89;100452.91;5146837;27;26894;-79
2021/12/29 11:44:17;;;;;;;;;;;;;;;12.20;75.20;100461.44;5147148;27;27029;-79
2021/12/29 11:46:42;;;;;;;;;;;;;;;12.22;74.93;100463.97;5145463;27;26982;-79
2021/12/29 11:49:07;;;;;;;;;;;;;;;12.22;74.82;100462.25;5144958;27;26633;-80
2021/12/29 11:51:44;;;;;;;;;;;;;;;12.22;74.46;100462.25;5145185;27;29196;-80
2021/12/29 11:54:13;;;;;;;;;;;;;;;12.22;75.23;100464.81;5143883;27;27889;-80
2021/12/29 11:56:40;;;;;;;;;;;;;;;12.23;75.18;100461.31;5143877;27;27240;-79
2021/12/29 11:59:05;;;;;;;;;;;;;;;12.20;74.71;100461.44;5144404;27;27017;-81
2021/12/29 12:01:30;;;;;;;;;;;;;;;12.21;74.96;100463.13;5140040;27;26969;-80
2021/12/29 12:03:57;;;;;;;;;;;;;;;12.21;74.63;100468.31;5138897;27;27097;-79
2021/12/29 12:06:24;;;;;;;;;;;;;;;12.22;73.80;100470.00;5144324;27;26862;-80
2021/12/29 12:09:00;;;;;;;;;;;;;;;12.23;75.47;100450.97;5143270;27;27103;-81
2021/12/29 12:11:26;;;;;;;;;;;;;;;12.24;74.14;100447.47;5138993;27;26842;-80
2021/12/29 12:13:51;;;;;;;;;;;;;;;12.24;75.13;100441.44;5138005;27;27192;-79
2021/12/29 12:16:16;;;;;;;;;;;;;;;12.25;74.25;100433.63;5141894;27;26894;-79
2021/12/29 12:18:46;;;;;;;;;;;;;;;12.25;75.00;100449.16;5138847;27;55599;-79
2021/12/29 12:21:31;;;;;;;;;;;;;;;12.26;74.90;100456.00;5140423;27;27043;-79
2021/12/29 12:24:10;;;;;;;;;;;;;;;12.26;74.95;100445.66;5140320;27;27817;-80
2021/12/29 12:26:46;;;;;;;;;;;;;;;12.26;75.17;100435.28;5138028;27;26985;-81
2021/12/29 12:29:14;;;;;;;;;;;;;;;12.29;74.97;100440.38;5139207;27;26934;-79
2021/12/29 12:31:39;;;;;;;;;;;;;;;12.31;75.33;100437.72;5142430;27;26803;-78
2021/12/29 12:34:07;;;;;;;;;;;;;;;12.33;75.06;100430.75;5141409;27;49194;-78
2021/12/29 12:36:33;;;;;;;;;;;;;;;12.34;74.68;100430.69;5141038;27;27188;-78
2021/12/29 12:39:09;;;;;;;;;;;;;;;12.35;74.77;100432.38;5140975;27;27099;-78
2021/12/29 12:41:41;;;;;;;;;;;;;;;12.38;74.51;100424.47;5141420;27;27040;-78